Time;durP1;ratioP1;P1;durP2;ratioP2;P2;SDS_P1;SDS_P2;PMS_P1;PMS_P2;Temp;Humidity;BMP_temperature;BMP_pressure;BME280_temperature;BME280_humidity;BME280_pressure;Samples;Min_cycle;Max_cycle;Signal;HPM_P1;HPM_P2
2021/04/03 00:00:10;;;;;;;16.10;5.40;;;;;;;5.80;75.55;102706.63;5134398;28;20035;-41
2021/04/03 00:02:36;;;;;;;18.77;5.53;;;;;;;5.63;75.95;102705.66;5134262;28;20084;-41
2021/04/03 00:05:02;;;;;;;16.90;5.45;;;;;;;5.48;76.30;102714.38;5134673;28;20054;-41
2021/04/03 00:07:28;;;;;;;13.63;4.57;;;;;;;5.55;76.65;102708.25;5134568;28;20031;-40
2021/04/03 00:09:53;;;;;;;17.57;4.27;;;;;;;5.55;76.07;102704.72;5134285;28;20482;-40
2021/04/03 00:12:18;;;;;;;13.97;4.23;;;;;;;5.52;75.73;102713.94;5134281;28;20331;-41
2021/04/03 00:14:46;;;;;;;13.67;3.67;;;;;;;5.54;75.56;102697.66;5133676;28;20034;-40
2021/04/03 00:17:11;;;;;;;14.30;3.25;;;;;;;5.56;75.40;102701.03;5133717;28;20391;-40
2021/04/03 00:19:37;;;;;;;11.83;3.20;;;;;;;5.56;75.22;102701.03;5133654;28;20031;-41
2021/04/03 00:22:03;;;;;;;12.47;3.30;;;;;;;5.55;74.56;102710.09;5133319;28;20027;-40
2021/04/03 00:24:28;;;;;;;14.18;3.42;;;;;;;5.54;74.89;102716.44;5137297;27;20414;-40
2021/04/03 00:26:53;;;;;;;11.87;3.00;;;;;;;5.60;74.55;102710.47;5137709;27;20027;-40
2021/04/03 00:29:19;;;;;;;17.87;3.10;;;;;;;5.59;74.16;102711.47;5137739;27;20038;-41
2021/04/03 00:31:44;;;;;;;12.80;2.40;;;;;;;5.58;73.93;102715.16;5137590;27;20079;-40
2021/04/03 00:34:09;;;;;;;11.33;2.90;;;;;;;5.53;73.79;102707.56;5137512;27;20078;-40
2021/04/03 00:36:35;;;;;;;15.80;3.47;;;;;;;5.55;73.92;102708.25;5137706;27;20027;-41
2021/04/03 00:39:00;;;;;;;14.80;3.97;;;;;;;5.51;74.20;102712.22;5137662;27;20031;-40
2021/04/03 00:41:26;;;;;;;12.63;3.83;;;;;;;5.48;74.04;102709.03;5137794;27;20106;-41
2021/04/03 00:43:51;;;;;;;13.87;3.03;;;;;;;5.42;74.20;102707.78;5137377;27;20059;-41
2021/04/03 00:46:16;;;;;;;13.90;2.87;;;;;;;5.40;74.19;102707.91;5137395;27;20027;-41
2021/04/03 00:48:42;;;;;;;15.10;3.27;;;;;;;5.31;74.55;102700.78;5138106;27;20091;-41
2021/04/03 00:51:09;;;;;;;15.13;3.27;;;;;;;5.35;74.11;102706.69;5137802;27;20019;-41
2021/04/03 00:53:34;;;;;;;14.02;4.22;;;;;;;5.28;74.95;102706.47;5136842;27;20055;-41
2021/04/03 00:56:03;;;;;;;12.10;3.38;;;;;;;5.28;74.74;102709.16;5138005;27;20061;-41
2021/04/03 00:58:28;;;;;;;14.82;3.55;;;;;;;5.22;74.73;102703.53;5136983;27;20091;-41
2021/04/03 01:00:53;;;;;;;12.83;3.30;;;;;;;5.14;75.19;102696.25;5137325;27;20518;-41
2021/04/03 01:03:19;;;;;;;12.17;3.90;;;;;;;5.17;74.90;102690.56;5137803;27;20138;-41
2021/04/03 01:05:44;;;;;;;13.27;3.63;;;;;;;5.10;75.27;102694.84;5137060;27;20019;-41
2021/04/03 01:08:11;;;;;;;12.43;3.27;;;;;;;5.11;75.51;102696.53;5136584;27;20022;-40
2021/04/03 01:10:41;;;;;;;10.45;3.15;;;;;;;5.12;75.46;102700.91;5137643;27;20054;-41
2021/04/03 01:13:25;;;;;;;15.88;3.63;;;;;;;5.16;75.29;102710.34;5137110;27;20098;-41
2021/04/03 01:15:50;;;;;;;14.57;3.95;;;;;;;5.11;75.80;102710.78;5137336;27;20030;-40
2021/04/03 01:18:28;;;;;;;12.00;3.53;;;;;;;5.16;75.54;102702.28;5136661;27;20422;-41
2021/04/03 01:21:08;;;;;;;15.27;3.50;;;;;;;5.24;75.30;102698.88;5136900;27;20455;-41
2021/04/03 01:23:55;;;;;;;12.90;3.10;;;;;;;5.17;75.57;102701.28;5136554;27;20027;-41
2021/04/03 01:26:29;;;;;;;15.07;3.35;;;;;;;5.16;75.46;102702.28;5136633;27;20019;-40
2021/04/03 01:29:19;;;;;;;12.07;3.03;;;;;;;5.20;75.41;102703.69;5136722;27;20394;-40
2021/04/03 01:31:45;;;;;;;15.18;3.30;;;;;;;5.15;75.66;102698.75;5136499;27;20489;-40
2021/04/03 01:34:17;;;;;;;16.35;2.60;;;;;;;5.17;75.31;102695.91;5135898;27;20039;-41
2021/04/03 01:36:43;;;;;;;14.05;2.90;;;;;;;5.21;76.05;102694.63;5136513;27;20027;-40
2021/04/03 01:39:15;;;;;;;17.45;2.92;;;;;;;5.19;75.37;102688.59;5136449;27;20023;-41
2021/04/03 01:41:44;;;;;;;18.38;3.08;;;;;;;5.23;76.01;102689.13;5136219;27;20039;-41
2021/04/03 01:44:15;;;;;;;15.00;3.17;;;;;;;5.14;75.58;102691.72;5135778;27;20481;-41
2021/04/03 01:46:42;;;;;;;11.55;3.15;;;;;;;5.15;75.84;102682.66;5136388;27;20027;-41
2021/04/03 01:49:10;;;;;;;16.70;3.35;;;;;;;5.15;75.17;102682.66;5136008;27;20443;-41
2021/04/03 01:51:39;;;;;;;14.00;3.00;;;;;;;5.06;75.33;102685.41;5136374;27;20030;-41
2021/04/03 01:54:09;;;;;;;13.38;2.60;;;;;;;5.08;75.35;102675.41;5135974;27;20551;-41
2021/04/03 01:56:36;;;;;;;17.58;3.88;;;;;;;5.08;74.65;102683.44;5136433;27;20027;-41
2021/04/03 01:59:01;;;;;;;12.35;2.60;;;;;;;5.03;75.26;102683.03;5135832;27;20023;-41
2021/04/03 02:01:27;;;;;;;13.52;2.95;;;;;;;5.08;75.84;102688.81;5135412;27;20019;-41
2021/04/03 02:03:57;;;;;;;12.82;2.90;;;;;;;4.98;74.36;102699.56;5135837;27;20035;-41
2021/04/03 02:06:23;;;;;;;13.40;3.35;;;;;;;5.05;74.23;102697.13;5134882;27;20054;-41
2021/04/03 02:08:50;;;;;;;17.92;3.20;;;;;;;4.96;74.12;102703.38;5135633;27;20046;-41
2021/04/03 02:11:15;;;;;;;;;;;;;;;5.07;73.39;102695.13;5136047;27;20038;-41
2021/04/03 02:13:41;;;;;;;10.18;2.97;;;;;;;4.96;73.68;102698.03;5135459;27;19998;-40
2021/04/03 02:16:08;;;;;;;11.90;2.80;;;;;;;4.98;74.05;102702.25;5135813;27;20027;-41
2021/04/03 02:18:34;;;;;;;16.80;3.80;;;;;;;5.00;73.82;102694.06;5135367;27;20383;-41
2021/04/03 02:21:08;;;;;;;12.80;3.10;;;;;;;5.00;73.69;102699.41;5134851;27;20023;-41
2021/04/03 02:23:35;;;;;;;13.57;2.97;;;;;;;5.02;73.43;102689.38;5134434;27;20064;-41
2021/04/03 02:26:01;;;;;;;16.30;3.05;;;;;;;5.03;73.75;102693.78;5135372;27;20026;-41
2021/04/03 02:28:27;;;;;;;13.77;3.15;;;;;;;5.06;73.79;102690.78;5135947;27;20031;-41
2021/04/03 02:30:53;;;;;;;15.70;2.83;;;;;;;5.08;73.37;102689.66;5135510;27;20451;-41
2021/04/03 02:33:19;;;;;;;15.10;3.42;;;;;;;5.13;73.49;102694.56;5135155;27;20497;-41
2021/04/03 02:35:44;;;;;;;12.48;2.80;;;;;;;5.10;72.79;102697.53;5135130;27;20027;-41
2021/04/03 02:38:11;;;;;;;12.67;3.00;;;;;;;5.18;72.60;102692.28;5134700;27;20058;-41
2021/04/03 02:40:37;;;;;;;11.98;2.47;;;;;;;5.21;72.86;102697.31;5135065;27;20030;-41
2021/04/03 02:43:07;;;;;;;8.57;2.20;;;;;;;5.20;73.01;102698.31;5135558;27;20459;-41
2021/04/03 02:45:42;;;;;;;9.93;2.58;;;;;;;5.23;73.26;102698.03;5135256;27;20351;-41
2021/04/03 02:48:16;;;;;;;11.95;2.72;;;;;;;5.15;73.37;102698.75;5134995;27;20435;-41
2021/04/03 02:50:43;;;;;;;10.82;2.70;;;;;;;5.21;73.12;102699.16;5135110;27;20027;-41
2021/04/03 02:53:15;;;;;;;16.60;3.72;;;;;;;5.22;73.00;102704.41;5134483;27;20027;-41
2021/04/03 02:55:47;;;;;;;14.82;2.70;;;;;;;5.22;73.31;102708.88;5134410;27;20483;-41
2021/04/03 02:58:18;;;;;;;12.82;2.13;;;;;;;5.26;73.30;102715.63;5134349;27;20419;-41
2021/04/03 03:00:46;;;;;;;14.15;3.05;;;;;;;5.18;73.73;102711.03;5134764;27;20091;-42
2021/04/03 03:03:12;;;;;;;12.57;3.05;;;;;;;5.28;73.51;102706.47;5134902;27;20054;-41
2021/04/03 03:05:39;;;;;;;13.60;3.50;;;;;;;5.26;73.22;102704.91;5135227;27;20455;-41
2021/04/03 03:08:05;;;;;;;15.07;3.05;;;;;;;5.25;73.35;102698.72;5134521;27;20453;-41
2021/04/03 03:10:31;;;;;;;20.10;3.03;;;;;;;5.30;72.39;102701.78;5135448;27;20107;-41
2021/04/03 03:12:57;;;;;;;16.48;2.75;;;;;;;5.22;73.35;102696.34;5134536;27;20443;-41
2021/04/03 03:15:28;;;;;;;9.57;2.55;;;;;;;5.30;72.63;102701.78;5134134;27;20031;-42
2021/04/03 03:17:53;;;;;;;13.60;3.22;;;;;;;5.29;72.95;102689.38;5132893;27;20555;-41
2021/04/03 03:20:18;;;;;;;11.63;2.53;;;;;;;5.22;73.28;102693.66;5135022;27;20114;-41
2021/04/03 03:22:46;;;;;;;12.77;3.63;;;;;;;5.26;73.55;102683.44;5134369;27;20029;-41
2021/04/03 03:25:11;;;;;;;13.32;2.40;;;;;;;5.25;73.20;102692.50;5134437;27;20027;-41
2021/04/03 03:27:40;;;;;;;11.23;2.90;;;;;;;5.31;73.33;102687.38;5134402;27;20079;-41
2021/04/03 03:30:07;;;;;;;20.13;3.20;;;;;;;5.28;73.23;102686.84;5134718;27;20058;-41
2021/04/03 03:32:33;;;;;;;14.35;3.38;;;;;;;5.28;73.21;102686.84;5135117;27;20381;-41
2021/04/03 03:34:59;;;;;;;12.20;3.15;;;;;;;5.30;72.93;102684.84;5134192;28;20160;-41
2021/04/03 03:37:24;;;;;;;13.70;2.47;;;;;;;5.32;73.05;102680.16;5134336;27;20126;-41
2021/04/03 03:39:51;;;;;;;13.32;3.15;;;;;;;5.35;73.19;102693.28;5134657;28;20023;-41
2021/04/03 03:42:17;;;;;;;14.27;2.70;;;;;;;5.30;73.69;102685.69;5133974;28;20596;-40
2021/04/03 03:44:43;;;;;;;15.90;2.60;;;;;;;5.31;72.93;102687.38;5133804;28;20031;-41
2021/04/03 03:47:08;;;;;;;13.52;2.60;;;;;;;5.32;72.69;102691.75;5134197;28;20027;-41
2021/04/03 03:49:34;;;;;;;15.07;3.13;;;;;;;5.30;72.53;102693.72;5134535;28;20027;-41
2021/04/03 03:51:59;;;;;;;15.03;3.87;;;;;;;5.32;72.59;102689.06;5134749;28;20537;-41
2021/04/03 03:54:25;;;;;;;10.57;2.70;;;;;;;5.29;72.91;102693.88;5134477;28;20028;-41
2021/04/03 03:56:50;;;;;;;15.33;2.73;;;;;;;5.23;72.72;102689.13;5134488;28;20028;-41
2021/04/03 03:59:15;;;;;;;15.87;3.57;;;;;;;5.29;72.36;102697.41;5136432;27;20268;-41
2021/04/03 04:01:41;;;;;;;15.10;3.47;;;;;;;5.24;72.73;102688.97;5137998;27;20039;-41
2021/04/03 04:04:06;;;;;;;17.90;3.50;;;;;;;5.29;72.66;102691.22;5138288;27;20089;-40
2021/04/03 04:06:31;;;;;;;13.53;3.10;;;;;;;5.31;72.10;102695.41;5137957;27;20066;-41
2021/04/03 04:08:57;;;;;;;16.47;3.03;;;;;;;5.30;72.17;102699.09;5137825;27;20027;-41
2021/04/03 04:11:22;;;;;;;15.60;3.00;;;;;;;5.31;72.12;102695.41;5138127;27;20033;-41
2021/04/03 04:13:47;;;;;;;16.57;2.73;;;;;;;5.28;72.48;102697.56;5138286;27;20027;-41
2021/04/03 04:16:12;;;;;;;18.50;3.70;;;;;;;5.30;71.90;102695.56;5138040;27;20106;-40
2021/04/03 04:18:38;;;;;;;14.90;3.27;;;;;;;5.28;71.88;102702.94;5137833;27;20031;-41
2021/04/03 04:21:03;;;;;;;10.50;2.80;;;;;;;5.19;71.79;102701.16;5138453;27;20502;-40
2021/04/03 04:23:29;;;;;;;13.83;3.17;;;;;;;5.16;71.66;102700.44;5137557;27;20391;-41
2021/04/03 04:25:54;;;;;;;10.87;2.67;;;;;;;5.18;71.94;102710.22;5137551;27;20019;-40
2021/04/03 04:28:19;;;;;;;17.17;3.10;;;;;;;5.15;72.14;102709.50;5137594;27;20082;-41
2021/04/03 04:30:45;;;;;;;17.03;2.93;;;;;;;5.16;71.37;102716.53;5137694;27;20081;-40
2021/04/03 04:33:10;;;;;;;18.70;3.33;;;;;;;5.12;71.08;102709.81;5137291;27;20467;-41
2021/04/03 04:35:35;;;;;;;13.63;3.30;;;;;;;5.19;71.55;102718.09;5138278;27;20035;-41
2021/04/03 04:38:01;;;;;;;12.90;2.93;;;;;;;5.13;70.90;102719.53;5137447;27;20034;-41
2021/04/03 04:40:26;;;;;;;17.77;3.93;;;;;;;5.08;69.61;102723.66;5137239;27;20038;-41
2021/04/03 04:42:52;;;;;;;15.03;2.83;;;;;;;5.03;69.98;102725.94;5137363;27;20019;-41
2021/04/03 04:45:18;;;;;;;13.13;2.70;;;;;;;5.00;70.73;102732.44;5137102;27;20032;-41
2021/04/03 04:47:43;;;;;;;15.27;2.73;;;;;;;4.96;69.67;102730.19;5136975;27;20027;-41
2021/04/03 04:50:10;;;;;;;13.55;3.85;;;;;;;4.81;69.96;102736.03;5137538;27;20035;-41
2021/04/03 04:52:35;;;;;;;14.00;3.00;;;;;;;4.76;70.45;102740.16;5137124;27;20061;-41
2021/04/03 04:55:02;;;;;;;19.80;4.00;;;;;;;4.74;70.03;102740.31;5138001;27;20094;-41
2021/04/03 04:57:27;;;;;;;14.50;3.03;;;;;;;4.72;69.83;102739.59;5136727;27;20467;-41
2021/04/03 04:59:55;;;;;;;10.47;2.53;;;;;;;4.68;69.76;102745.41;5137138;27;20076;-41
2021/04/03 05:02:20;;;;;;;12.60;3.15;;;;;;;4.69;69.91;102757.81;5137140;27;20043;-41
2021/04/03 05:04:45;;;;;;;14.13;2.73;;;;;;;4.65;70.39;102759.94;5137489;27;20027;-41
2021/04/03 05:07:11;;;;;;;16.17;3.13;;;;;;;4.54;70.09;102758.28;5137248;27;20072;-41
2021/04/03 05:09:36;;;;;;;13.30;3.27;;;;;;;4.54;69.68;102760.09;5135871;27;20075;-41
2021/04/03 05:12:02;;;;;;;14.53;2.93;;;;;;;4.52;70.61;102754.03;5136837;27;20027;-41
2021/04/03 05:14:29;;;;;;;15.43;3.75;;;;;;;4.43;70.70;102763.78;5137106;27;20051;-41
2021/04/03 05:16:54;;;;;;;11.88;2.70;;;;;;;4.41;71.15;102767.59;5136595;27;20027;-41
2021/04/03 05:19:19;;;;;;;12.40;2.77;;;;;;;4.43;71.13;102771.81;5136729;27;20023;-41
2021/04/03 05:21:45;;;;;;;13.47;3.07;;;;;;;4.31;69.77;102767.63;5136300;27;20106;-41
2021/04/03 05:24:10;;;;;;;12.17;2.93;;;;;;;4.28;70.84;102767.91;5135875;27;20047;-41
2021/04/03 05:26:35;;;;;;;13.80;3.13;;;;;;;4.21;70.54;102762.28;5136574;27;20390;-41
2021/04/03 05:29:01;;;;;;;13.23;2.87;;;;;;;4.27;71.59;102759.03;5136607;27;20023;-41
2021/04/03 05:31:26;;;;;;;15.80;2.77;;;;;;;4.21;71.72;102759.59;5136532;27;20110;-41
2021/04/03 05:33:51;;;;;;;11.87;3.30;;;;;;;4.23;71.16;102762.13;5137282;27;20030;-41
2021/04/03 05:36:17;;;;;;;13.03;2.87;;;;;;;4.17;71.32;102768.91;5137056;27;20024;-40
2021/04/03 05:38:42;;;;;;;21.40;3.70;;;;;;;4.16;71.67;102779.75;5134983;27;20126;-41
2021/04/03 05:41:08;;;;;;;14.63;2.80;;;;;;;4.20;71.97;102776.66;5136394;27;20019;-41
2021/04/03 05:43:34;;;;;;;11.30;2.92;;;;;;;4.28;71.81;102782.13;5136007;27;20140;-41
2021/04/03 05:46:02;;;;;;;14.43;3.35;;;;;;;4.32;72.42;102791.56;5135976;27;20030;-41
2021/04/03 05:48:28;;;;;;;16.02;3.17;;;;;;;4.32;71.64;102790.72;5136454;27;20038;-40
2021/04/03 05:50:55;;;;;;;23.73;3.63;;;;;;;4.37;72.17;102791.16;5136224;27;20023;-41
2021/04/03 05:53:22;;;;;;;19.67;3.30;;;;;;;4.45;71.19;102801.16;5136363;27;20027;-41
2021/04/03 05:55:55;;;;;;;15.63;3.10;;;;;;;4.47;71.86;102804.53;5136401;27;20035;-41
2021/04/03 05:58:20;;;;;;;12.90;2.90;;;;;;;4.39;70.99;102803.44;5135949;27;20439;-41
2021/04/03 06:00:46;;;;;;;14.10;3.30;;;;;;;4.44;71.57;102810.16;5136021;27;20106;-41
2021/04/03 06:03:14;;;;;;;16.27;3.10;;;;;;;4.42;71.10;102820.19;5136409;27;20090;-41
2021/04/03 06:05:40;;;;;;;11.30;3.10;;;;;;;4.45;71.69;102818.09;5136191;27;20491;-41
2021/04/03 06:08:05;;;;;;;16.63;3.80;;;;;;;4.44;72.24;102826.25;5135857;27;20031;-41
2021/04/03 06:10:31;;;;;;;16.23;3.60;;;;;;;4.47;70.65;102825.97;5136124;27;20370;-41
2021/04/03 06:12:56;;;;;;;14.07;3.17;;;;;;;4.53;71.63;102831.59;5135726;27;20034;-41
2021/04/03 06:15:24;;;;;;;16.80;4.60;;;;;;;4.54;71.67;102836.00;5135448;27;20062;-41
2021/04/03 06:17:53;;;;;;;16.95;4.10;;;;;;;4.57;72.06;102837.53;5136059;27;20027;-40
2021/04/03 06:20:34;;;;;;;12.68;3.28;;;;;;;4.63;71.92;102836.94;5135436;27;20035;-41
2021/04/03 06:22:59;;;;;;;21.25;3.83;;;;;;;4.69;71.67;102847.09;5135509;27;20042;-41
2021/04/03 06:25:24;;;;;;;17.13;3.80;;;;;;;4.73;71.61;102845.81;5135837;27;20028;-41
2021/04/03 06:28:04;;;;;;;15.13;3.77;;;;;;;4.81;71.37;102853.97;5135471;27;20032;-41
2021/04/03 06:30:32;;;;;;;16.08;3.33;;;;;;;4.78;71.83;102862.34;5135917;27;20034;-41
2021/04/03 06:33:14;;;;;;;19.83;3.72;;;;;;;4.79;71.42;102860.50;5134987;27;20035;-41
2021/04/03 06:35:40;;;;;;;18.58;3.65;;;;;;;4.88;71.51;102862.28;5135273;27;20098;-41
2021/04/03 06:38:22;;;;;;;14.43;3.67;;;;;;;4.98;71.45;102865.81;5135122;27;20107;-41
2021/04/03 06:40:48;;;;;;;25.15;4.53;;;;;;;4.96;71.64;102858.91;5135946;27;20041;-41
2021/04/03 06:43:14;;;;;;;;;;;;;;;5.09;70.95;102864.78;5135807;27;20042;-40
2021/04/03 06:45:41;;;;;;;18.02;4.07;;;;;;;5.10;72.09;102866.47;5134972;27;19907;-41
2021/04/03 06:48:08;;;;;;;19.67;4.15;;;;;;;5.16;72.38;102876.63;5135024;27;20031;-41
2021/04/03 06:50:42;;;;;;;25.55;5.05;;;;;;;5.22;71.93;102867.13;5133435;27;20043;-41
2021/04/03 06:53:13;;;;;;;22.45;4.35;;;;;;;5.22;72.19;102877.88;5134993;27;20023;-41
2021/04/03 06:55:39;;;;;;;18.92;4.15;;;;;;;5.30;71.80;102876.16;5135381;27;20451;-41
2021/04/03 06:58:07;;;;;;;22.52;4.43;;;;;;;5.25;72.13;102886.47;5135293;27;20130;-41
2021/04/03 07:00:34;;;;;;;23.70;4.18;;;;;;;5.39;71.81;102888.69;5135425;27;20030;-41
2021/04/03 07:03:00;;;;;;;22.10;4.80;;;;;;;5.40;72.45;102884.16;5135143;27;20092;-41
2021/04/03 07:05:29;;;;;;;;;;;;;;;5.52;71.54;102892.88;5135802;27;20043;-41
2021/04/03 07:07:56;;;;;;;25.70;5.88;;;;;;;5.42;71.74;102887.56;5134745;27;19912;-41
2021/04/03 07:10:21;;;;;;;;;;;;;;;5.56;71.22;102884.41;5135738;27;20023;-41
2021/04/03 07:12:48;;;;;;;20.27;4.63;;;;;;;5.53;71.96;102886.53;5134733;27;20272;-41
2021/04/03 07:15:14;;;;;;;29.45;5.15;;;;;;;5.53;72.35;102891.88;5134258;27;20023;-41
2021/04/03 07:17:41;;;;;;;23.60;5.10;;;;;;;5.58;72.28;102886.94;5134527;27;20428;-41
2021/04/03 07:20:15;;;;;;;25.38;5.00;;;;;;;5.67;72.01;102896.78;5134607;27;20489;-42
2021/04/03 07:22:47;;;;;;;24.48;4.45;;;;;;;5.69;72.77;102900.97;5134289;27;20031;-41
2021/04/03 07:25:13;;;;;;;19.15;4.20;;;;;;;5.70;72.13;102901.81;5135115;27;20030;-41
2021/04/03 07:27:42;;;;;;;21.20;4.60;;;;;;;5.74;72.31;102902.38;5134776;27;20023;-41
2021/04/03 07:30:08;;;;;;;25.25;5.40;;;;;;;5.73;71.57;102901.53;5134776;27;20360;-41
2021/04/03 07:32:42;;;;;;;23.40;4.55;;;;;;;5.72;71.97;102910.59;5133565;27;20015;-41
2021/04/03 07:35:17;;;;;;;22.40;4.93;;;;;;;5.81;72.38;102909.72;5134635;27;20027;-41
2021/04/03 07:37:43;;;;;;;28.70;5.75;;;;;;;5.79;72.07;102906.31;5134223;28;20024;-40
2021/04/03 07:40:32;;;;;;;28.05;5.13;;;;;;;5.85;72.43;102907.53;5134890;28;20102;-40
2021/04/03 07:42:57;;;;;;;23.30;5.05;;;;;;;5.90;71.80;102910.63;5134477;27;20031;-39
2021/04/03 07:45:28;;;;;;;21.67;4.50;;;;;;;5.94;72.31;102922.78;5134792;28;20020;-40
2021/04/03 07:47:54;;;;;;;21.17;4.78;;;;;;;5.99;72.03;102906.22;5134252;28;20031;-40
2021/04/03 07:50:48;;;;;;;27.05;5.30;;;;;;;6.04;71.72;102907.47;5134501;28;20030;-40
2021/04/03 07:53:32;;;;;;;25.30;5.07;;;;;;;6.08;71.83;102910.72;5134502;28;20038;-40
2021/04/03 07:55:57;;;;;;;22.10;4.93;;;;;;;6.09;71.76;102907.03;5134272;28;20135;-40
2021/04/03 07:58:29;;;;;;;21.80;4.83;;;;;;;6.15;71.30;102911.81;5134135;28;20118;-39
2021/04/03 08:00:57;;;;;;;25.38;5.22;;;;;;;6.18;71.65;102920.38;5134488;28;20050;-40
2021/04/03 08:03:24;;;;;;;20.92;4.85;;;;;;;6.30;71.15;102921.03;5133879;28;20432;-40
2021/04/03 08:05:58;;;;;;;28.02;5.72;;;;;;;6.29;70.66;102922.00;5134569;28;20379;-40
2021/04/03 08:08:25;;;;;;;23.65;5.13;;;;;;;6.34;71.01;102919.72;5134832;28;20042;-40
2021/04/03 08:11:07;;;;;;;26.42;4.75;;;;;;;6.33;70.71;102920.72;5134030;28;20119;-40
2021/04/03 08:13:36;;;;;;;23.13;4.70;;;;;;;6.34;70.41;102926.94;5134240;28;20023;-40
2021/04/03 08:16:04;;;;;;;25.95;5.35;;;;;;;6.33;70.76;102926.09;5133721;28;20420;-40
2021/04/03 08:18:30;;;;;;;22.42;5.40;;;;;;;6.32;71.02;102927.09;5133560;28;20118;-40
2021/04/03 08:20:55;;;;;;;33.30;6.57;;;;;;;6.15;70.67;102933.31;5133744;28;20102;-40
2021/04/03 08:23:44;;;;;;;28.60;5.67;;;;;;;6.27;71.00;102936.59;5133966;28;20080;-40
2021/04/03 08:26:10;;;;;;;23.02;5.20;;;;;;;6.40;70.58;102946.00;5134435;28;20098;-41
2021/04/03 08:28:36;;;;;;;21.80;4.60;;;;;;;6.53;71.38;102945.59;5133624;28;20034;-40
2021/04/03 08:31:19;;;;;;;23.95;5.45;;;;;;;6.63;70.49;102946.38;5133907;28;20019;-40
2021/04/03 08:33:46;;;;;;;32.88;6.88;;;;;;;6.49;70.64;102952.31;5133887;28;20111;-40
2021/04/03 08:36:11;;;;;;;24.25;5.75;;;;;;;6.63;70.23;102953.59;5133566;28;20467;-40
2021/04/03 08:38:38;;;;;;;28.77;6.63;;;;;;;6.61;69.67;102966.34;5133754;28;20035;-40
2021/04/03 08:41:03;;;;;;;;;;;;;;;6.67;69.63;102960.34;5133929;28;20035;-40
2021/04/03 08:43:29;;;;;;;23.57;6.13;;;;;;;6.65;70.34;102957.84;5133795;27;19911;-40
2021/04/03 08:46:01;;;;;;;31.43;6.20;;;;;;;6.72;70.00;102958.88;5137985;27;20253;-40
2021/04/03 08:48:30;;;;;;;24.50;5.47;;;;;;;6.72;69.63;102958.03;5137779;27;20035;-40
2021/04/03 08:50:56;;;;;;;33.95;6.43;;;;;;;6.89;69.28;102951.81;5137117;27;20065;-40
2021/04/03 08:53:21;;;;;;;20.00;5.30;;;;;;;6.90;68.88;102952.66;5137326;27;20106;-40
2021/04/03 08:55:47;;;;;;;25.70;5.70;;;;;;;6.99;68.59;102967.03;5137831;27;20034;-40
2021/04/03 08:58:12;;;;;;;24.83;6.20;;;;;;;7.14;68.22;102960.94;5137916;27;20019;-40
2021/04/03 09:00:38;;;;;;;26.48;5.88;;;;;;;7.03;67.79;102960.31;5137536;27;20027;-40
2021/04/03 09:03:04;;;;;;;23.25;5.13;;;;;;;7.22;67.98;102944.00;5137872;27;20368;-40
2021/04/03 09:05:29;;;;;;;27.77;6.18;;;;;;;7.27;67.07;102940.81;5137177;27;20031;-40
2021/04/03 09:07:54;;;;;;;20.02;4.82;;;;;;;7.42;67.28;102950.03;5136773;27;20023;-40
2021/04/03 09:10:23;;;;;;;22.70;4.97;;;;;;;7.60;66.72;102948.09;5137337;27;20030;-40
2021/04/03 09:12:50;;;;;;;22.35;5.30;;;;;;;7.56;66.14;102951.25;5136834;27;20031;-40
2021/04/03 09:15:25;;;;;;;22.90;5.80;;;;;;;7.77;66.26;102940.97;5136946;27;20026;-40
2021/04/03 09:17:54;;;;;;;18.95;4.68;;;;;;;7.86;64.93;102948.06;5136769;27;20027;-40
2021/04/03 09:20:22;;;;;;;22.55;5.07;;;;;;;7.89;64.89;102944.19;5136856;27;20035;-41
2021/04/03 09:22:51;;;;;;;17.10;5.20;;;;;;;7.76;64.97;102936.59;5136488;27;20035;-41
2021/04/03 09:25:21;;;;;;;23.33;4.85;;;;;;;7.84;65.65;102933.91;5137021;27;20026;-41
2021/04/03 09:28:15;;;;;;;26.05;5.57;;;;;;;7.99;65.13;102934.97;5136654;27;20030;-41
2021/04/03 09:30:43;;;;;;;21.35;5.00;;;;;;;8.01;65.08;102934.84;5137098;27;20371;-41
2021/04/03 09:33:22;;;;;;;23.55;4.80;;;;;;;7.95;62.88;102932.75;5136515;27;20028;-41
2021/04/03 09:35:50;;;;;;;16.42;4.63;;;;;;;7.95;62.20;102938.16;5136528;27;20371;-41
2021/04/03 09:38:27;;;;;;;21.92;4.78;;;;;;;8.09;62.62;102942.09;5136079;27;20027;-41
2021/04/03 09:40:52;;;;;;;23.25;4.47;;;;;;;8.33;62.53;102934.06;5136372;27;20019;-40
2021/04/03 09:43:18;;;;;;;18.93;4.97;;;;;;;8.40;61.13;102934.31;5136399;27;20023;-40
2021/04/03 09:45:44;;;;;;;30.33;6.70;;;;;;;8.37;62.05;102932.75;5136907;27;20055;-40
2021/04/03 09:48:10;;;;;;;22.10;5.13;;;;;;;8.57;60.66;102932.47;5136164;27;20114;-40
2021/04/03 09:50:36;;;;;;;18.90;4.88;;;;;;;8.74;60.64;102931.47;5135810;27;20107;-40
2021/04/03 09:53:06;;;;;;;16.17;4.30;;;;;;;8.86;60.20;102921.19;5136111;27;20066;-40
2021/04/03 09:55:32;;;;;;;15.20;3.83;;;;;;;9.10;59.83;102921.16;5135584;27;20039;-41
2021/04/03 09:57:57;;;;;;;21.65;5.05;;;;;;;9.42;59.41;102914.00;5135700;27;20027;-40
2021/04/03 10:00:23;;;;;;;14.00;3.80;;;;;;;9.69;58.38;102920.84;5135992;27;20105;-41
2021/04/03 10:02:48;;;;;;;16.60;5.80;;;;;;;9.69;57.22;102920.84;5135907;27;20055;-40
2021/04/03 10:05:13;;;;;;;18.20;4.03;;;;;;;9.67;57.76;102922.91;5136660;27;20027;-40
2021/04/03 10:07:38;;;;;;;14.23;4.57;;;;;;;9.75;57.57;102920.13;5135687;27;20446;-40
2021/04/03 10:10:05;;;;;;;18.83;4.07;;;;;;;9.52;55.74;102930.88;5135664;27;20106;-40
2021/04/03 10:12:30;;;;;;;20.10;4.68;;;;;;;9.43;57.13;102921.94;5135511;27;20027;-40
2021/04/03 10:14:56;;;;;;;14.83;3.80;;;;;;;9.53;57.12;102924.44;5134711;27;20336;-40
2021/04/03 10:17:21;;;;;;;15.30;3.70;;;;;;;9.72;55.37;102923.22;5134219;27;20031;-40
2021/04/03 10:19:47;;;;;;;16.83;4.40;;;;;;;9.86;55.58;102924.31;5135867;27;20023;-40
2021/04/03 10:22:12;;;;;;;18.92;4.28;;;;;;;10.07;54.48;102929.97;5135887;27;20371;-40
2021/04/03 10:24:37;;;;;;;14.70;3.63;;;;;;;10.20;54.38;102934.78;5135618;27;20106;-40
2021/04/03 10:27:03;;;;;;;15.90;3.77;;;;;;;10.20;53.02;102937.50;5135069;27;20115;-40
2021/04/03 10:29:29;;;;;;;18.42;3.97;;;;;;;10.26;53.66;102923.31;5135674;27;20040;-41
2021/04/03 10:31:55;;;;;;;18.90;4.65;;;;;;;10.20;53.19;102930.25;5135598;27;20027;-39
2021/04/03 10:34:20;;;;;;;18.80;4.63;;;;;;;10.33;54.52;102921.56;5135347;27;20038;-39
2021/04/03 10:36:45;;;;;;;14.37;3.77;;;;;;;10.34;54.32;102927.81;5135200;27;20080;-39
2021/04/03 10:39:11;;;;;;;14.73;4.60;;;;;;;10.23;53.42;102932.56;5135197;27;20023;-40
2021/04/03 10:41:37;;;;;;;14.77;4.13;;;;;;;10.52;55.32;102934.63;5135202;27;20031;-40
2021/04/03 10:44:02;;;;;;;;;;;;;;;10.74;55.30;102940.22;5135776;27;20375;-40
2021/04/03 10:46:28;;;;;;;14.43;4.03;;;;;;;10.45;54.55;102936.38;5135206;27;19907;-40
2021/04/03 10:48:53;;;;;;;21.10;4.30;;;;;;;10.39;54.27;102937.06;5135041;27;20129;-40
2021/04/03 10:51:18;;;;;;;22.60;4.43;;;;;;;10.19;54.05;102938.50;5133324;27;20043;-40
2021/04/03 10:53:44;;;;;;;18.93;4.87;;;;;;;10.25;53.87;102937.88;5135000;27;20080;-40
2021/04/03 10:56:09;;;;;;;14.93;3.57;;;;;;;10.46;52.81;102931.81;5135399;27;20081;-40
2021/04/03 10:58:35;;;;;;;15.88;3.50;;;;;;;10.60;53.54;102936.44;5134942;27;20269;-41
2021/04/03 11:01:00;;;;;;;16.73;3.90;;;;;;;10.73;52.33;102935.81;5134584;27;20034;-41
2021/04/03 11:03:25;;;;;;;14.67;4.43;;;;;;;10.95;51.36;102943.09;5135374;27;20068;-41
2021/04/03 11:05:51;;;;;;;17.77;4.10;;;;;;;11.03;51.39;102932.19;5134896;27;20055;-41
2021/04/03 11:08:16;;;;;;;19.40;3.87;;;;;;;11.29;51.42;102933.63;5135358;27;20030;-40
2021/04/03 11:10:42;;;;;;;12.60;3.70;;;;;;;11.48;49.44;102929.56;5134691;27;20027;-41
2021/04/03 11:13:07;;;;;;;16.55;3.50;;;;;;;11.53;49.05;102930.66;5134675;27;20030;-40
2021/04/03 11:15:32;;;;;;;15.30;4.20;;;;;;;11.48;49.38;102924.13;5135488;27;20103;-41
2021/04/03 11:17:58;;;;;;;13.48;3.75;;;;;;;11.50;49.32;102916.66;5134548;27;20038;-41
2021/04/03 11:20:24;;;;;;;16.57;3.23;;;;;;;11.64;48.27;102917.69;5134666;27;20523;-41
2021/04/03 11:22:49;;;;;;;15.57;3.95;;;;;;;11.56;48.52;102915.88;5134327;27;20023;-41
2021/04/03 11:25:15;;;;;;;13.60;3.80;;;;;;;11.41;49.07;102917.75;5134605;27;20495;-41
2021/04/03 11:27:41;;;;;;;12.60;3.75;;;;;;;11.62;48.91;102925.16;5134366;27;20445;-41